createdAt,value
2019-03-20T00:05:12.147Z,61.00
2019-03-20T00:11:12.090Z,58.60
2019-03-20T00:17:12.065Z,52.30
2019-03-20T00:23:12.099Z,47.80
2019-03-20T00:29:12.099Z,44.80
2019-03-20T00:35:12.081Z,40.50
2019-03-20T00:41:12.199Z,39.20
2019-03-20T00:47:12.137Z,36.90
2019-03-20T00:53:12.186Z,34.60
2019-03-20T00:59:12.116Z,29.50
2019-03-20T01:05:12.779Z,26.80
2019-03-20T01:11:12.105Z,25.80
2019-03-20T01:17:12.135Z,23.90
2019-03-20T01:23:12.105Z,22.50
2019-03-20T01:29:12.131Z,21.70
2019-03-20T01:35:12.135Z,20.90
2019-03-20T01:41:12.149Z,19.40
2019-03-20T01:47:12.155Z,17.10
2019-03-20T01:53:12.200Z,17.00
2019-03-20T01:59:12.145Z,15.20
2019-03-20T02:05:12.154Z,15.30
2019-03-20T02:11:12.170Z,13.70
2019-03-20T02:17:12.269Z,14.00
2019-03-20T02:23:12.171Z,13.50
2019-03-20T02:29:12.259Z,13.90
2019-03-20T02:35:12.300Z,12.30
2019-03-20T02:41:12.224Z,11.70
2019-03-20T02:47:12.193Z,11.00
2019-03-20T02:53:12.190Z,10.40
2019-03-20T02:59:12.305Z,10.20
2019-03-20T03:05:12.214Z,9.60
2019-03-20T03:11:12.240Z,9.60
2019-03-20T03:17:12.208Z,9.80
2019-03-20T03:23:12.221Z,9.20
2019-03-20T03:29:12.230Z,7.90
2019-03-20T03:35:17.082Z,7.90
2019-03-20T03:41:12.234Z,8.00
2019-03-20T03:47:12.253Z,8.40
2019-03-20T03:53:12.231Z,7.30
2019-03-20T03:59:12.271Z,7.30
2019-03-20T04:05:12.245Z,9.10
2019-03-20T04:11:12.261Z,6.50
2019-03-20T04:17:12.310Z,7.10
2019-03-20T04:23:12.329Z,7.10
2019-03-20T04:29:12.287Z,7.00
2019-03-20T04:35:12.265Z,6.50
2019-03-20T04:41:12.272Z,5.50
2019-03-20T04:47:12.280Z,6.30
2019-03-20T04:53:12.288Z,7.80
2019-03-20T04:59:12.284Z,5.80
2019-03-20T05:05:12.349Z,5.70
2019-03-20T05:11:12.377Z,6.10
2019-03-20T05:17:12.310Z,5.80
2019-03-20T05:23:12.317Z,6.20
2019-03-20T05:29:12.323Z,6.20
2019-03-20T05:35:12.382Z,6.70
2019-03-20T05:41:12.323Z,6.20
2019-03-20T05:47:12.333Z,5.40
2019-03-20T05:53:12.316Z,5.20
2019-03-20T05:59:12.443Z,6.10
2019-03-20T06:05:12.334Z,5.60
2019-03-20T06:11:12.346Z,6.80
2019-03-20T06:17:12.424Z,7.20
2019-03-20T06:23:12.377Z,6.90
2019-03-20T06:29:12.365Z,6.30
2019-03-20T06:35:12.358Z,7.20
2019-03-20T06:41:12.390Z,7.80
2019-03-20T06:47:12.355Z,7.90
2019-03-20T06:53:12.370Z,7.60
2019-03-20T06:59:12.457Z,12.50
2019-03-20T07:05:12.470Z,7.80
2019-03-20T07:11:12.394Z,7.60
2019-03-20T07:17:12.432Z,8.90
2019-03-20T07:23:12.576Z,7.10
2019-03-20T07:29:12.386Z,6.50
2019-03-20T07:35:12.411Z,7.40
2019-03-20T07:41:12.507Z,6.30
2019-03-20T07:47:12.428Z,7.60
2019-03-20T07:53:12.416Z,6.90
2019-03-20T07:59:12.428Z,6.80
2019-03-20T08:05:12.424Z,6.00
2019-03-20T08:11:12.433Z,5.40
2019-03-20T08:17:12.448Z,5.40
2019-03-20T08:23:12.434Z,208.20
2019-03-20T08:29:12.534Z,298.20
2019-03-20T08:35:12.438Z,306.40
2019-03-20T08:41:12.458Z,328.50
2019-03-20T08:47:12.478Z,462.70
2019-03-20T08:53:12.474Z,423.80
2019-03-20T08:59:12.464Z,407.90
2019-03-20T09:05:12.473Z,433.50
2019-03-20T09:11:12.484Z,438.70
2019-03-20T09:17:12.628Z,441.80
2019-03-20T09:23:12.513Z,520.00
2019-03-20T09:29:18.622Z,355.70
2019-03-20T09:35:12.497Z,357.10
2019-03-20T09:41:12.488Z,314.30
2019-03-20T09:47:12.497Z,292.10
2019-03-20T09:53:12.522Z,411.40
2019-03-20T09:59:12.554Z,369.20
2019-03-20T10:05:12.589Z,343.90
2019-03-20T10:11:12.520Z,314.50
2019-03-20T10:17:12.593Z,291.80
2019-03-20T10:23:12.520Z,274.60
2019-03-20T10:29:12.538Z,262.80
2019-03-20T10:35:12.543Z,319.30
2019-03-20T10:41:12.542Z,377.60
2019-03-20T10:47:12.534Z,367.30
2019-03-20T10:53:12.631Z,335.80
2019-03-20T10:59:12.556Z,313.20
2019-03-20T11:05:12.550Z,289.70
2019-03-20T11:11:12.645Z,269.20
2019-03-20T11:17:12.582Z,251.00
2019-03-20T11:23:12.565Z,238.50
2019-03-20T11:29:12.665Z,227.90
2019-03-20T11:35:12.585Z,212.90
2019-03-20T11:41:12.595Z,212.50
2019-03-20T11:47:12.582Z,244.50
2019-03-20T11:53:12.587Z,256.90
2019-03-20T11:59:12.674Z,248.10
2019-03-20T12:05:12.603Z,233.20
2019-03-20T12:11:12.601Z,189.60
2019-03-20T12:17:12.785Z,195.10
2019-03-20T12:23:12.678Z,196.80
2019-03-20T12:29:12.690Z,219.40
2019-03-20T12:35:12.635Z,333.40
2019-03-20T12:41:12.660Z,334.00
2019-03-20T12:47:12.705Z,295.30
2019-03-20T12:53:12.652Z,276.40
2019-03-20T12:59:12.635Z,261.40
2019-03-20T13:05:12.623Z,254.00
2019-03-20T13:11:12.698Z,237.20
2019-03-20T13:17:12.641Z,223.40
2019-03-20T13:23:12.653Z,219.40
2019-03-20T13:29:12.657Z,205.70
2019-03-20T13:35:12.664Z,198.00
2019-03-20T13:41:12.700Z,193.80
2019-03-20T13:47:12.671Z,188.10
2019-03-20T13:53:14.991Z,177.10
2019-03-20T13:59:12.696Z,169.80
2019-03-20T14:05:12.716Z,166.50
2019-03-20T14:11:12.690Z,159.40
2019-03-20T14:17:12.705Z,152.60
2019-03-20T14:23:12.707Z,143.60
2019-03-20T14:29:12.704Z,144.50
2019-03-20T14:35:12.743Z,135.10
2019-03-20T14:41:21.221Z,128.40
2019-03-20T14:47:12.732Z,124.60
2019-03-20T14:53:12.718Z,118.70
2019-03-20T14:59:12.733Z,113.10
2019-03-20T15:05:12.728Z,108.10
2019-03-20T15:11:12.795Z,103.60
2019-03-20T15:17:12.737Z,96.80
2019-03-20T15:23:12.752Z,91.50
2019-03-20T15:29:12.758Z,91.00
2019-03-20T15:35:12.757Z,84.90
2019-03-20T15:41:14.000Z,65.30
2019-03-20T15:47:12.766Z,76.40
2019-03-20T15:53:12.784Z,288.80
2019-03-20T15:59:12.777Z,208.10
2019-03-20T16:05:12.779Z,171.20
2019-03-20T16:11:12.780Z,146.00
2019-03-20T16:17:12.781Z,129.10
2019-03-20T16:23:12.779Z,120.80
2019-03-20T16:29:12.832Z,142.10
2019-03-20T16:35:12.882Z,318.70
2019-03-20T16:41:16.668Z,214.80
2019-03-20T16:47:12.823Z,159.60
2019-03-20T16:53:12.821Z,206.20
2019-03-20T16:59:12.845Z,230.80
2019-03-20T17:05:12.822Z,255.10
2019-03-20T17:11:12.828Z,216.50
2019-03-20T17:17:12.818Z,191.20
2019-03-20T17:23:12.838Z,174.40
2019-03-20T17:29:13.761Z,168.70
2019-03-20T17:35:12.853Z,158.50
2019-03-20T17:41:12.836Z,149.70
2019-03-20T17:47:12.893Z,138.40
2019-03-20T17:53:12.860Z,134.10
2019-03-20T17:59:13.375Z,125.40
2019-03-20T18:05:12.895Z,111.80
2019-03-20T18:11:12.879Z,92.60
2019-03-20T18:17:12.894Z,89.30
2019-03-20T18:23:14.403Z,87.70
2019-03-20T18:29:12.874Z,93.00
2019-03-20T18:35:12.885Z,116.10
2019-03-20T18:41:12.951Z,119.80
2019-03-20T18:47:12.904Z,126.10
2019-03-20T18:53:12.915Z,165.70
2019-03-20T18:59:12.901Z,166.70
2019-03-20T19:05:12.931Z,162.80
2019-03-20T19:11:12.991Z,152.50
2019-03-20T19:17:13.021Z,135.40
2019-03-20T19:23:12.942Z,104.80
2019-03-20T19:29:12.907Z,110.60
2019-03-20T19:35:12.943Z,117.50
2019-03-20T19:41:12.966Z,107.10
2019-03-20T19:47:13.016Z,89.10
2019-03-20T19:53:12.965Z,129.80
2019-03-20T19:59:12.986Z,205.10
2019-03-20T20:05:16.041Z,159.40
2019-03-20T20:11:12.949Z,143.40
2019-03-20T20:17:13.023Z,132.30
2019-03-20T20:23:12.963Z,133.80
2019-03-20T20:29:12.998Z,126.10
2019-03-20T20:35:12.971Z,143.40
2019-03-20T20:41:13.079Z,147.70
2019-03-20T20:47:12.973Z,295.50
2019-03-20T20:53:12.985Z,226.60
2019-03-20T20:59:13.119Z,153.60
2019-03-20T21:05:13.002Z,161.00
2019-03-20T21:11:13.089Z,140.40
2019-03-20T21:17:13.057Z,131.00
2019-03-20T21:23:13.009Z,117.30
